<?xml version='1.0' encoding='utf-8'?>
<gpx xmlns="http://www.topografix.com/GPX/1/1" xmlns:om="http://www.oruxmaps.com/oruxmapsextensions/1/0" xmlns:xsi="http://www.w3.org/2001/XMLSchema-instance" creator="OruxMaps v.6.0.7 Donate" version="1.1" xsi:schemaLocation="http://www.topografix.com/GPX/1/1 http://www.topografix.com/GPX/1/1/gpx.xsd">
<metadata>
<name>2015-05-01 11:02</name>
<desc />
<link href="http://www.oruxmaps.com">
<text>OruxMaps</text>
</link>
<time>2015-05-01T08:02:52Z</time><bounds maxlat="35.0198719" maxlon="33.6390517" minlat="34.8011499" minlon="33.3888681" />
</metadata>
<trk>
<name>2015-05-01 11:02</name>
<desc>&lt;h1&gt;OruxMaps&lt;/h1&gt;&lt;br /&gt;&lt;hr align="center" width="480" style="height: 2px; width: 517px"/&gt;&lt;h2&gt;Name: 2015-05-01 11:02&lt;/h2&gt;&lt;br /&gt;&lt;p&gt;Start time: 05/01/2015 11:02&lt;/p&gt;&lt;p&gt;Finish time: 05/01/2015 19:19&lt;/p&gt;&lt;p&gt;Distance: 104km (08:16)&lt;/p&gt;&lt;p&gt;Moving time: 06:39&lt;/p&gt;&lt;p&gt;Average speed: 12.6km/h&lt;/p&gt;&lt;p&gt;Avg. Speed Mov.: 15.6km/h&lt;/p&gt;&lt;p&gt;Max. Speed: 54.9km/h&lt;/p&gt;&lt;p&gt;Minimum altitude: 0m&lt;/p&gt;&lt;p&gt;Maximum altitude: 382m&lt;/p&gt;&lt;p&gt;Ascent speed: 467m/h&lt;/p&gt;&lt;p&gt;Descent speed: -491.4m/h&lt;/p&gt;&lt;p&gt;Elevation gain: 1427m&lt;/p&gt;&lt;p&gt;Elevation loss: -1462m&lt;/p&gt;&lt;p&gt;Ascent time: 03:03&lt;/p&gt;&lt;p&gt;Descent time: 02:58&lt;/p&gt;&lt;hr align="center" width="480" style="height: 2px; width: 517px"/&gt;</desc>
<type>Undefined</type>
<extensions>
<om:oruxmapsextensions>
<om:ext type="TYPE" subtype="0">0</om:ext>
</om:oruxmapsextensions>
</extensions>
<trkseg>
<trkpt lat="34.9166450" lon="33.6365753">
<ele>4.6</ele>
<time>2015-05-01T08:02:53Z</time>
</trkpt>
<trkpt lat="34.9165877" lon="33.6364599">
<ele>4.8</ele>
<time>2015-05-01T08:02:57Z</time>
</trkpt>
<trkpt lat="34.9164901" lon="33.6380434">
<ele>2.7</ele>
<time>2015-05-01T08:03:40Z</time>
</trkpt>
<trkpt lat="34.9149579" lon="33.6379447">
<ele>1.4</ele>
<time>2015-05-01T08:04:51Z</time>
</trkpt>
<trkpt lat="34.9149646" lon="33.6365115">
<ele>5.5</ele>
<time>2015-05-01T08:05:33Z</time>
</trkpt>
<trkpt lat="34.9138573" lon="33.6363537">
<ele>9.5</ele>
<time>2015-05-01T08:06:47Z</time>
</trkpt>
<trkpt lat="34.9136988" lon="33.6365659">
<ele>9.7</ele>
<time>2015-05-01T08:07:00Z</time>
</trkpt>
<trkpt lat="34.9131826" lon="33.6362927">
<ele>8.9</ele>
<time>2015-05-01T08:07:49Z</time>
</trkpt>
<trkpt lat="34.9127493" lon="33.6363088">
<ele>6.5</ele>
<time>2015-05-01T08:08:21Z</time>
</trkpt>
<trkpt lat="34.9123724" lon="33.6358107">
<ele>4.7</ele>
<time>2015-05-01T08:09:09Z</time>
</trkpt>
<trkpt lat="34.9123057" lon="33.6354768">
<ele>5.9</ele>
<time>2015-05-01T08:09:17Z</time>
</trkpt>
<trkpt lat="34.9116449" lon="33.6353204">
<ele>7.1</ele>
<time>2015-05-01T08:09:31Z</time>
</trkpt>
<trkpt lat="34.9118858" lon="33.6346741">
<ele>5.9</ele>
<time>2015-05-01T08:09:43Z</time>
</trkpt>
<trkpt lat="34.9131826" lon="33.6325737">
<ele>5.2</ele>
<time>2015-05-01T08:10:21Z</time>
</trkpt>
<trkpt lat="34.9139377" lon="33.6304607">
<ele>7.4</ele>
<time>2015-05-01T08:11:04Z</time>
</trkpt>
<trkpt lat="34.9138846" lon="33.6302121">
<ele>8.6</ele>
<time>2015-05-01T08:11:14Z</time>
</trkpt>
<trkpt lat="34.9112352" lon="33.6299238">
<ele>7.5</ele>
<time>2015-05-01T08:12:07Z</time>
</trkpt>
<trkpt lat="34.9111123" lon="33.6313262">
<ele>4.7</ele>
<time>2015-05-01T08:12:29Z</time>
</trkpt>
<trkpt lat="34.9094968" lon="33.6312967">
<ele>5.1</ele>
<time>2015-05-01T08:13:00Z</time>
</trkpt>
<trkpt lat="34.9094381" lon="33.6328482">
<ele>6.6</ele>
<time>2015-05-01T08:13:24Z</time>
</trkpt>
<trkpt lat="34.9087560" lon="33.6332337">
<ele>5.8</ele>
<time>2015-05-01T08:13:40Z</time>
</trkpt>
<trkpt lat="34.9087907" lon="33.6340550">
<ele>3.3</ele>
<time>2015-05-01T08:14:03Z</time>
</trkpt>
<trkpt lat="34.9069698" lon="33.6342679">
<ele>3.0</ele>
<time>2015-05-01T08:14:37Z</time>
</trkpt>
<trkpt lat="34.9066604" lon="33.6316566">
<ele>3.3</ele>
<time>2015-05-01T08:15:27Z</time>
</trkpt>
<trkpt lat="34.9060718" lon="33.6299604">
<ele>8.9</ele>
<time>2015-05-01T08:16:02Z</time>
</trkpt>
<trkpt lat="34.9033579" lon="33.6304086">
<ele>10.3</ele>
<time>2015-05-01T08:16:59Z</time>
</trkpt>
<trkpt lat="34.8988657" lon="33.6303625">
<ele>8.2</ele>
<time>2015-05-01T08:18:11Z</time>
</trkpt>
<trkpt lat="34.8969631" lon="33.6305263">
<ele>2.8</ele>
<time>2015-05-01T08:18:34Z</time>
</trkpt>
<trkpt lat="34.8960948" lon="33.6308677">
<ele>3.3</ele>
<time>2015-05-01T08:18:46Z</time>
</trkpt>
<trkpt lat="34.8942938" lon="33.6322943">
<ele>2.6</ele>
<time>2015-05-01T08:19:20Z</time>
</trkpt>
<trkpt lat="34.8934041" lon="33.6325202">
<ele>2.2</ele>
<time>2015-05-01T08:19:39Z</time>
</trkpt>
<trkpt lat="34.8924626" lon="33.6321491">
<ele>1.9</ele>
<time>2015-05-01T08:19:57Z</time>
</trkpt>
<trkpt lat="34.8910426" lon="33.6308445">
<ele>3.4</ele>
<time>2015-05-01T08:20:28Z</time>
</trkpt>
<trkpt lat="34.8898695" lon="33.6295749">
<ele>6.9</ele>
<time>2015-05-01T08:20:59Z</time>
</trkpt>
<trkpt lat="34.8870467" lon="33.6255906">
<ele>1.6</ele>
<time>2015-05-01T08:22:13Z</time>
</trkpt>
<trkpt lat="34.8857216" lon="33.6230998">
<ele>-1.3</ele>
<time>2015-05-01T08:22:53Z</time>
</trkpt>
<trkpt lat="34.8848292" lon="33.6225712">
<ele>1.2</ele>
<time>2015-05-01T08:23:10Z</time>
</trkpt>
<trkpt lat="34.8833409" lon="33.6226502">
<ele>1.8</ele>
<time>2015-05-01T08:23:39Z</time>
</trkpt>
<trkpt lat="34.8830844" lon="33.6219638">
<ele>0.3</ele>
<time>2015-05-01T08:23:52Z</time>
</trkpt>
<trkpt lat="34.8778835" lon="33.6155809">
<ele>0.6</ele>
<time>2015-05-01T08:26:04Z</time>
</trkpt>
<trkpt lat="34.8769099" lon="33.6129638">
<ele>2.1</ele>
<time>2015-05-01T08:26:50Z</time>
</trkpt>
<trkpt lat="34.8774540" lon="33.6084907">
<ele>7.8</ele>
<time>2015-05-01T08:28:10Z</time>
</trkpt>
<trkpt lat="34.8774658" lon="33.6061172">
<ele>11.3</ele>
<time>2015-05-01T08:28:51Z</time>
</trkpt>
<trkpt lat="34.8770670" lon="33.6046137">
<ele>13.1</ele>
<time>2015-05-01T08:29:16Z</time>
</trkpt>
<trkpt lat="34.8764722" lon="33.6035209">
<ele>12.9</ele>
<time>2015-05-01T08:29:37Z</time>
</trkpt>
<trkpt lat="34.8761483" lon="33.6031636">
<ele>13.6</ele>
<time>2015-05-01T08:29:45Z</time>
</trkpt>
<trkpt lat="34.8753896" lon="33.6029200">
<ele>13.6</ele>
<time>2015-05-01T08:29:59Z</time>
</trkpt>
<trkpt lat="34.8751360" lon="33.6018423">
<ele>16.1</ele>
<time>2015-05-01T08:30:18Z</time>
</trkpt>
<trkpt lat="34.8740311" lon="33.6006846">
<ele>17.8</ele>
<time>2015-05-01T08:30:58Z</time>
</trkpt>
<trkpt lat="34.8680417" lon="33.5976106">
<ele>16.6</ele>
<time>2015-05-01T08:33:22Z</time>
</trkpt>
<trkpt lat="34.8680444" lon="33.5972664">
<ele>16.5</ele>
<time>2015-05-01T08:34:04Z</time>
</trkpt>
<trkpt lat="34.8695030" lon="33.5944058">
<ele>21.2</ele>
<time>2015-05-01T08:35:13Z</time>
</trkpt>
<trkpt lat="34.8702254" lon="33.5919190">
<ele>23.7</ele>
<time>2015-05-01T08:35:54Z</time>
</trkpt>
<trkpt lat="34.8702619" lon="33.5913620">
<ele>24.9</ele>
<time>2015-05-01T08:36:06Z</time>
</trkpt>
<trkpt lat="34.8691613" lon="33.5908302">
<ele>20.7</ele>
<time>2015-05-01T08:36:29Z</time>
</trkpt>
<trkpt lat="34.8673537" lon="33.5895345">
<ele>23.5</ele>
<time>2015-05-01T08:37:12Z</time>
</trkpt>
<trkpt lat="34.8666901" lon="33.5909524">
<ele>22.2</ele>
<time>2015-05-01T08:37:45Z</time>
</trkpt>
<trkpt lat="34.8654685" lon="33.5909700">
<ele>22.4</ele>
<time>2015-05-01T08:38:11Z</time>
</trkpt>
<trkpt lat="34.8639623" lon="33.5895497">
<ele>19.3</ele>
<time>2015-05-01T08:38:48Z</time>
</trkpt>
<trkpt lat="34.8647906" lon="33.5876713">
<ele>21.9</ele>
<time>2015-05-01T08:39:32Z</time>
</trkpt>
<trkpt lat="34.8622416" lon="33.5858457">
<ele>24.9</ele>
<time>2015-05-01T08:40:44Z</time>
</trkpt>
<trkpt lat="34.8615339" lon="33.5867522">
<ele>22.8</ele>
<time>2015-05-01T08:41:05Z</time>
</trkpt>
<trkpt lat="34.8602864" lon="33.5893054">
<ele>20.7</ele>
<time>2015-05-01T08:41:48Z</time>
</trkpt>
<trkpt lat="34.8596304" lon="33.5903011">
<ele>18.8</ele>
<time>2015-05-01T08:42:38Z</time>
</trkpt>
<trkpt lat="34.8583119" lon="33.5878856">
<ele>17.5</ele>
<time>2015-05-01T08:43:21Z</time>
</trkpt>
<trkpt lat="34.8570078" lon="33.5864144">
<ele>18.9</ele>
<time>2015-05-01T08:43:52Z</time>
</trkpt>
<trkpt lat="34.8542378" lon="33.5826480">
<ele>21.9</ele>
<time>2015-05-01T08:45:17Z</time>
</trkpt>
<trkpt lat="34.8523798" lon="33.5803917">
<ele>22.8</ele>
<time>2015-05-01T08:46:10Z</time>
</trkpt>
<trkpt lat="34.8486300" lon="33.5748054">
<ele>25.5</ele>
<time>2015-05-01T08:48:13Z</time>
</trkpt>
<trkpt lat="34.8464912" lon="33.5726275">
<ele>21.2</ele>
<time>2015-05-01T08:49:14Z</time>
</trkpt>
<trkpt lat="34.8464777" lon="33.5724940">
<ele>21.4</ele>
<time>2015-05-01T08:49:18Z</time>
</trkpt>
<trkpt lat="34.8479523" lon="33.5711534">
<ele>24.5</ele>
<time>2015-05-01T08:51:09Z</time>
</trkpt>
<trkpt lat="34.8478418" lon="33.5706414">
<ele>24.5</ele>
<time>2015-05-01T08:52:02Z</time>
</trkpt>
<trkpt lat="34.8474889" lon="33.5707352">
<ele>25.1</ele>
<time>2015-05-01T08:52:47Z</time>
</trkpt>
<trkpt lat="34.8473868" lon="33.5711444">
<ele>23.7</ele>
<time>2015-05-01T08:54:04Z</time>
</trkpt>
<trkpt lat="34.8475201" lon="33.5711313">
<ele>24.5</ele>
<time>2015-05-01T08:54:18Z</time>
</trkpt>
<trkpt lat="34.8474733" lon="33.5714239">
<ele>23.8</ele>
<time>2015-05-01T08:55:08Z</time>
</trkpt>
<trkpt lat="34.8473993" lon="33.5709785">
<ele>24.4</ele>
<time>2015-05-01T08:56:13Z</time>
</trkpt>
<trkpt lat="34.8473285" lon="33.5710674">
<ele>23.8</ele>
<time>2015-05-01T08:56:20Z</time>
</trkpt>
<trkpt lat="34.8474677" lon="33.5708665">
<ele>24.9</ele>
<time>2015-05-01T09:01:16Z</time>
</trkpt>
<trkpt lat="34.8479741" lon="33.5711205">
<ele>24.6</ele>
<time>2015-05-01T09:01:56Z</time>
</trkpt>
<trkpt lat="34.8484399" lon="33.5706615">
<ele>25.0</ele>
<time>2015-05-01T09:02:35Z</time>
</trkpt>
<trkpt lat="34.8488787" lon="33.5688322">
<ele>23.5</ele>
<time>2015-05-01T09:03:13Z</time>
</trkpt>
<trkpt lat="34.8487323" lon="33.5682507">
<ele>24.6</ele>
<time>2015-05-01T09:03:25Z</time>
</trkpt>
<trkpt lat="34.8229744" lon="33.5338650">
<ele>18.7</ele>
<time>2015-05-01T09:17:43Z</time>
</trkpt>
<trkpt lat="34.8180463" lon="33.5276418">
<ele>23.4</ele>
<time>2015-05-01T09:20:28Z</time>
</trkpt>
<trkpt lat="34.8153964" lon="33.5253429">
<ele>22.4</ele>
<time>2015-05-01T09:21:48Z</time>
</trkpt>
<trkpt lat="34.8147917" lon="33.5260959">
<ele>21.3</ele>
<time>2015-05-01T09:22:10Z</time>
</trkpt>
<trkpt lat="34.8126088" lon="33.5273140">
<ele>17.6</ele>
<time>2015-05-01T09:22:53Z</time>
</trkpt>
<trkpt lat="34.8109556" lon="33.5287009">
<ele>14.0</ele>
<time>2015-05-01T09:23:34Z</time>
</trkpt>
<trkpt lat="34.8095646" lon="33.5292014">
<ele>11.7</ele>
<time>2015-05-01T09:24:12Z</time>
</trkpt>
<trkpt lat="34.8088554" lon="33.5300245">
<ele>10.3</ele>
<time>2015-05-01T09:24:44Z</time>
</trkpt>
<trkpt lat="34.8084414" lon="33.5295387">
<ele>10.1</ele>
<time>2015-05-01T09:25:25Z</time>
</trkpt>
<trkpt lat="34.8088972" lon="33.5299593">
<ele>10.5</ele>
<time>2015-05-01T09:34:15Z</time>
</trkpt>
<trkpt lat="34.8096016" lon="33.5290984">
<ele>11.9</ele>
<time>2015-05-01T09:34:40Z</time>
</trkpt>
<trkpt lat="34.8109091" lon="33.5286655">
<ele>13.9</ele>
<time>2015-05-01T09:35:08Z</time>
</trkpt>
<trkpt lat="34.8127720" lon="33.5271384">
<ele>18.0</ele>
<time>2015-05-01T09:37:04Z</time>
</trkpt>
<trkpt lat="34.8147919" lon="33.5260184">
<ele>21.6</ele>
<time>2015-05-01T09:37:50Z</time>
</trkpt>
<trkpt lat="34.8153166" lon="33.5252806">
<ele>22.4</ele>
<time>2015-05-01T09:38:09Z</time>
</trkpt>
<trkpt lat="34.8093401" lon="33.5200614">
<ele>19.6</ele>
<time>2015-05-01T09:40:57Z</time>
</trkpt>
<trkpt lat="34.8056923" lon="33.5165004">
<ele>14.6</ele>
<time>2015-05-01T09:42:31Z</time>
</trkpt>
<trkpt lat="34.8049390" lon="33.5151948">
<ele>17.3</ele>
<time>2015-05-01T09:42:55Z</time>
</trkpt>
<trkpt lat="34.8011499" lon="33.5066902">
<ele>20.8</ele>
<time>2015-05-01T09:46:54Z</time>
</trkpt>
<trkpt lat="34.8018158" lon="33.5062313">
<ele>21.5</ele>
<time>2015-05-01T09:47:16Z</time>
</trkpt>
<trkpt lat="34.8034079" lon="33.5031376">
<ele>26.7</ele>
<time>2015-05-01T09:48:21Z</time>
</trkpt>
<trkpt lat="34.8037822" lon="33.5020500">
<ele>27.5</ele>
<time>2015-05-01T09:48:45Z</time>
</trkpt>
<trkpt lat="34.8032493" lon="33.4997833">
<ele>25.9</ele>
<time>2015-05-01T09:49:29Z</time>
</trkpt>
<trkpt lat="34.8029827" lon="33.4978827">
<ele>20.2</ele>
<time>2015-05-01T09:49:54Z</time>
</trkpt>
<trkpt lat="34.8022511" lon="33.4950548">
<ele>20.0</ele>
<time>2015-05-01T09:50:52Z</time>
</trkpt>
<trkpt lat="34.8028387" lon="33.4926423">
<ele>19.1</ele>
<time>2015-05-01T09:51:29Z</time>
</trkpt>
<trkpt lat="34.8035624" lon="33.4917663">
<ele>24.7</ele>
<time>2015-05-01T09:52:04Z</time>
</trkpt>
<trkpt lat="34.8036662" lon="33.4913341">
<ele>27.2</ele>
<time>2015-05-01T09:52:22Z</time>
</trkpt>
<trkpt lat="34.8035946" lon="33.4898998">
<ele>26.4</ele>
<time>2015-05-01T09:53:00Z</time>
</trkpt>
<trkpt lat="34.8037193" lon="33.4890380">
<ele>27.1</ele>
<time>2015-05-01T09:53:30Z</time>
</trkpt>
<trkpt lat="34.8034828" lon="33.4876766">
<ele>23.3</ele>
<time>2015-05-01T09:54:45Z</time>
</trkpt>
<trkpt lat="34.8035413" lon="33.4870257">
<ele>22.4</ele>
<time>2015-05-01T09:55:01Z</time>
</trkpt>
<trkpt lat="34.8039130" lon="33.4871596">
<ele>24.8</ele>
<time>2015-05-01T09:55:35Z</time>
</trkpt>
<trkpt lat="34.8045253" lon="33.4863408">
<ele>23.6</ele>
<time>2015-05-01T09:56:01Z</time>
</trkpt>
<trkpt lat="34.8046378" lon="33.4858666">
<ele>23.6</ele>
<time>2015-05-01T09:56:10Z</time>
</trkpt>
<trkpt lat="34.8045488" lon="33.4849533">
<ele>24.6</ele>
<time>2015-05-01T09:56:26Z</time>
</trkpt>
<trkpt lat="34.8048893" lon="33.4837720">
<ele>22.2</ele>
<time>2015-05-01T09:56:53Z</time>
</trkpt>
<trkpt lat="34.8048457" lon="33.4829978">
<ele>22.0</ele>
<time>2015-05-01T09:57:07Z</time>
</trkpt>
<trkpt lat="34.8044647" lon="33.4819543">
<ele>23.5</ele>
<time>2015-05-01T09:57:28Z</time>
</trkpt>
<trkpt lat="34.8046389" lon="33.4800831">
<ele>26.4</ele>
<time>2015-05-01T09:58:06Z</time>
</trkpt>
<trkpt lat="34.8039606" lon="33.4772284">
<ele>30.9</ele>
<time>2015-05-01T09:59:19Z</time>
</trkpt>
<trkpt lat="34.8036940" lon="33.4740851">
<ele>35.2</ele>
<time>2015-05-01T10:00:37Z</time>
</trkpt>
<trkpt lat="34.8041113" lon="33.4721667">
<ele>36.6</ele>
<time>2015-05-01T10:01:28Z</time>
</trkpt>
<trkpt lat="34.8057206" lon="33.4679404">
<ele>41.6</ele>
<time>2015-05-01T10:03:38Z</time>
</trkpt>
<trkpt lat="34.8060661" lon="33.4663764">
<ele>43.7</ele>
<time>2015-05-01T10:04:21Z</time>
</trkpt>
<trkpt lat="34.8052509" lon="33.4664502">
<ele>49.1</ele>
<time>2015-05-01T10:06:17Z</time>
</trkpt>
<trkpt lat="34.8048970" lon="33.4667802">
<ele>55.1</ele>
<time>2015-05-01T10:06:47Z</time>
</trkpt>
<trkpt lat="34.8047247" lon="33.4672033">
<ele>59.8</ele>
<time>2015-05-01T10:07:19Z</time>
</trkpt>
<trkpt lat="34.8044783" lon="33.4672671">
<ele>61.5</ele>
<time>2015-05-01T10:08:00Z</time>
</trkpt>
<trkpt lat="34.8047197" lon="33.4672015">
<ele>59.8</ele>
<time>2015-05-01T10:08:13Z</time>
</trkpt>
<trkpt lat="34.8049416" lon="33.4667286">
<ele>54.6</ele>
<time>2015-05-01T10:08:24Z</time>
</trkpt>
<trkpt lat="34.8052801" lon="33.4664482">
<ele>48.8</ele>
<time>2015-05-01T10:08:30Z</time>
</trkpt>
<trkpt lat="34.8060463" lon="33.4663330">
<ele>43.8</ele>
<time>2015-05-01T10:08:45Z</time>
</trkpt>
<trkpt lat="34.8063452" lon="33.4653613">
<ele>45.1</ele>
<time>2015-05-01T10:09:15Z</time>
</trkpt>
<trkpt lat="34.8074932" lon="33.4643711">
<ele>46.4</ele>
<time>2015-05-01T10:09:49Z</time>
</trkpt>
<trkpt lat="34.8080291" lon="33.4618678">
<ele>51.3</ele>
<time>2015-05-01T10:10:44Z</time>
</trkpt>
<trkpt lat="34.8081791" lon="33.4533941">
<ele>61.8</ele>
<time>2015-05-01T10:13:46Z</time>
</trkpt>
<trkpt lat="34.8079299" lon="33.4521775">
<ele>64.9</ele>
<time>2015-05-01T10:14:20Z</time>
</trkpt>
<trkpt lat="34.8064753" lon="33.4480778">
<ele>58.7</ele>
<time>2015-05-01T10:16:26Z</time>
</trkpt>
<trkpt lat="34.8062240" lon="33.4466167">
<ele>61.9</ele>
<time>2015-05-01T10:17:02Z</time>
</trkpt>
<trkpt lat="34.8062388" lon="33.4447096">
<ele>63.2</ele>
<time>2015-05-01T10:17:54Z</time>
</trkpt>
<trkpt lat="34.8065750" lon="33.4412638">
<ele>65.2</ele>
<time>2015-05-01T10:19:24Z</time>
</trkpt>
<trkpt lat="34.8065741" lon="33.4389436">
<ele>67.2</ele>
<time>2015-05-01T10:20:16Z</time>
</trkpt>
<trkpt lat="34.8063395" lon="33.4375079">
<ele>67.4</ele>
<time>2015-05-01T10:20:58Z</time>
</trkpt>
<trkpt lat="34.8070910" lon="33.4367438">
<ele>69.0</ele>
<time>2015-05-01T10:21:42Z</time>
</trkpt>
<trkpt lat="34.8072029" lon="33.4362048">
<ele>67.9</ele>
<time>2015-05-01T10:21:55Z</time>
</trkpt>
<trkpt lat="34.8087963" lon="33.4347582">
<ele>71.0</ele>
<time>2015-05-01T10:22:44Z</time>
</trkpt>
<trkpt lat="34.8096005" lon="33.4342658">
<ele>69.4</ele>
<time>2015-05-01T10:23:01Z</time>
</trkpt>
<trkpt lat="34.8104874" lon="33.4331436">
<ele>68.0</ele>
<time>2015-05-01T10:23:22Z</time>
</trkpt>
<trkpt lat="34.8106869" lon="33.4319608">
<ele>70.4</ele>
<time>2015-05-01T10:23:53Z</time>
</trkpt>
<trkpt lat="34.8111916" lon="33.4304443">
<ele>74.0</ele>
<time>2015-05-01T10:29:30Z</time>
</trkpt>
<trkpt lat="34.8121712" lon="33.4286144">
<ele>73.9</ele>
<time>2015-05-01T10:30:18Z</time>
</trkpt>
<trkpt lat="34.8125473" lon="33.4275617">
<ele>74.3</ele>
<time>2015-05-01T10:30:41Z</time>
</trkpt>
<trkpt lat="34.8138199" lon="33.4254604">
<ele>75.5</ele>
<time>2015-05-01T10:31:33Z</time>
</trkpt>
<trkpt lat="34.8154110" lon="33.4209529">
<ele>93.9</ele>
<time>2015-05-01T10:34:44Z</time>
</trkpt>
<trkpt lat="34.8162930" lon="33.4168469">
<ele>103.9</ele>
<time>2015-05-01T10:36:21Z</time>
</trkpt>
<trkpt lat="34.8169948" lon="33.4117777">
<ele>109.5</ele>
<time>2015-05-01T10:38:16Z</time>
</trkpt>
<trkpt lat="34.8185349" lon="33.4087534">
<ele>112.9</ele>
<time>2015-05-01T10:39:40Z</time>
</trkpt>
<trkpt lat="34.8189876" lon="33.4058899">
<ele>116.8</ele>
<time>2015-05-01T10:40:51Z</time>
</trkpt>
<trkpt lat="34.8203921" lon="33.4014681">
<ele>124.0</ele>
<time>2015-05-01T10:42:36Z</time>
</trkpt>
<trkpt lat="34.8220388" lon="33.3990963">
<ele>129.0</ele>
<time>2015-05-01T10:43:44Z</time>
</trkpt>
<trkpt lat="34.8247751" lon="33.3957771">
<ele>139.1</ele>
<time>2015-05-01T10:45:29Z</time>
</trkpt>
<trkpt lat="34.8256726" lon="33.3908307">
<ele>155.8</ele>
<time>2015-05-01T10:53:35Z</time>
</trkpt>
<trkpt lat="34.8255178" lon="33.3908294">
<ele>154.6</ele>
<time>2015-05-01T10:54:03Z</time>
</trkpt>
<trkpt lat="34.8254008" lon="33.3905220">
<ele>156.1</ele>
<time>2015-05-01T10:54:21Z</time>
</trkpt>
<trkpt lat="34.8270558" lon="33.3918187">
<ele>150.3</ele>
<time>2015-05-01T10:55:05Z</time>
</trkpt>
<trkpt lat="34.8276741" lon="33.3920123">
<ele>150.6</ele>
<time>2015-05-01T10:55:20Z</time>
</trkpt>
<trkpt lat="34.8285300" lon="33.3918960">
<ele>151.4</ele>
<time>2015-05-01T10:56:11Z</time>
</trkpt>
<trkpt lat="34.8288922" lon="33.3921210">
<ele>151.5</ele>
<time>2015-05-01T10:56:23Z</time>
</trkpt>
<trkpt lat="34.8316782" lon="33.3951945">
<ele>149.1</ele>
<time>2015-05-01T10:57:54Z</time>
</trkpt>
<trkpt lat="34.8329790" lon="33.3963904">
<ele>148.0</ele>
<time>2015-05-01T10:58:17Z</time>
</trkpt>
<trkpt lat="34.8380236" lon="33.4000593">
<ele>154.1</ele>
<time>2015-05-01T11:01:40Z</time>
</trkpt>
<trkpt lat="34.8381381" lon="33.4004657">
<ele>153.5</ele>
<time>2015-05-01T11:01:51Z</time>
</trkpt>
<trkpt lat="34.8387962" lon="33.4007275">
<ele>158.2</ele>
<time>2015-05-01T11:02:08Z</time>
</trkpt>
<trkpt lat="34.8394270" lon="33.4016708">
<ele>160.6</ele>
<time>2015-05-01T11:02:33Z</time>
</trkpt>
<trkpt lat="34.8401313" lon="33.4038204">
<ele>151.3</ele>
<time>2015-05-01T11:03:06Z</time>
</trkpt>
<trkpt lat="34.8407044" lon="33.4047449">
<ele>149.9</ele>
<time>2015-05-01T11:03:18Z</time>
</trkpt>
<trkpt lat="34.8437330" lon="33.4076332">
<ele>150.6</ele>
<time>2015-05-01T11:04:20Z</time>
</trkpt>
<trkpt lat="34.8445282" lon="33.4080078">
<ele>152.0</ele>
<time>2015-05-01T11:04:40Z</time>
</trkpt>
<trkpt lat="34.8455400" lon="33.4079153">
<ele>157.1</ele>
<time>2015-05-01T11:05:10Z</time>
</trkpt>
<trkpt lat="34.8462378" lon="33.4073372">
<ele>161.6</ele>
<time>2015-05-01T11:06:01Z</time>
</trkpt>
<trkpt lat="34.8479684" lon="33.4044108">
<ele>187.4</ele>
<time>2015-05-01T11:11:12Z</time>
</trkpt>
<trkpt lat="34.8492113" lon="33.4028593">
<ele>199.9</ele>
<time>2015-05-01T11:14:10Z</time>
</trkpt>
<trkpt lat="34.8513806" lon="33.3986169">
<ele>227.2</ele>
<time>2015-05-01T11:17:22Z</time>
</trkpt>
<trkpt lat="34.8526841" lon="33.3970838">
<ele>239.1</ele>
<time>2015-05-01T11:18:59Z</time>
</trkpt>
<trkpt lat="34.8539797" lon="33.3959966">
<ele>247.9</ele>
<time>2015-05-01T11:20:14Z</time>
</trkpt>
<trkpt lat="34.8549954" lon="33.3954261">
<ele>257.0</ele>
<time>2015-05-01T11:22:51Z</time>
</trkpt>
<trkpt lat="34.8564773" lon="33.3948335">
<ele>266.6</ele>
<time>2015-05-01T11:23:48Z</time>
</trkpt>
<trkpt lat="34.8578550" lon="33.3945481">
<ele>274.0</ele>
<time>2015-05-01T11:24:40Z</time>
</trkpt>
<trkpt lat="34.8605200" lon="33.3946004">
<ele>284.2</ele>
<time>2015-05-01T11:26:11Z</time>
</trkpt>
<trkpt lat="34.8628707" lon="33.3952906">
<ele>284.3</ele>
<time>2015-05-01T11:27:19Z</time>
</trkpt>
<trkpt lat="34.8668427" lon="33.3955897">
<ele>281.9</ele>
<time>2015-05-01T11:28:32Z</time>
</trkpt>
<trkpt lat="34.8713988" lon="33.3973443">
<ele>284.9</ele>
<time>2015-05-01T11:30:45Z</time>
</trkpt>
<trkpt lat="34.8729434" lon="33.3982829">
<ele>284.8</ele>
<time>2015-05-01T11:31:28Z</time>
</trkpt>
<trkpt lat="34.8747680" lon="33.3998141">
<ele>292.5</ele>
<time>2015-05-01T11:32:29Z</time>
</trkpt>
<trkpt lat="34.8761140" lon="33.4002775">
<ele>297.5</ele>
<time>2015-05-01T11:33:15Z</time>
</trkpt>
<trkpt lat="34.8778605" lon="33.4002411">
<ele>306.6</ele>
<time>2015-05-01T11:34:15Z</time>
</trkpt>
<trkpt lat="34.8798390" lon="33.3992878">
<ele>313.2</ele>
<time>2015-05-01T11:35:32Z</time>
</trkpt>
<trkpt lat="34.8818001" lon="33.3986974">
<ele>317.3</ele>
<time>2015-05-01T11:36:27Z</time>
</trkpt>
<trkpt lat="34.8824042" lon="33.3987721">
<ele>319.8</ele>
<time>2015-05-01T11:36:42Z</time>
</trkpt>
<trkpt lat="34.8857627" lon="33.4001307">
<ele>338.3</ele>
<time>2015-05-01T11:44:28Z</time>
</trkpt>
<trkpt lat="34.8866429" lon="33.4003124">
<ele>342.4</ele>
<time>2015-05-01T11:44:58Z</time>
</trkpt>
<trkpt lat="34.8890195" lon="33.3999518">
<ele>354.3</ele>
<time>2015-05-01T11:46:25Z</time>
</trkpt>
<trkpt lat="34.8912308" lon="33.4004519">
<ele>366.1</ele>
<time>2015-05-01T11:47:49Z</time>
</trkpt>
<trkpt lat="34.8960203" lon="33.3994947">
<ele>374.1</ele>
<time>2015-05-01T11:50:11Z</time>
</trkpt>
<trkpt lat="34.8971885" lon="33.3994829">
<ele>369.2</ele>
<time>2015-05-01T11:50:31Z</time>
</trkpt>
<trkpt lat="34.8981364" lon="33.4000209">
<ele>364.2</ele>
<time>2015-05-01T11:50:44Z</time>
</trkpt>
<trkpt lat="34.8995572" lon="33.4016933">
<ele>360.4</ele>
<time>2015-05-01T11:52:31Z</time>
</trkpt>
<trkpt lat="34.9002120" lon="33.4020820">
<ele>357.9</ele>
<time>2015-05-01T11:52:47Z</time>
</trkpt>
<trkpt lat="34.9009431" lon="33.4022310">
<ele>353.7</ele>
<time>2015-05-01T11:52:58Z</time>
</trkpt>
<trkpt lat="34.9034612" lon="33.4021812">
<ele>355.1</ele>
<time>2015-05-01T11:53:45Z</time>
</trkpt>
<trkpt lat="34.9031654" lon="33.4022977">
<ele>357.4</ele>
<time>2015-05-01T11:54:01Z</time>
</trkpt>
<trkpt lat="34.9035434" lon="33.4023282">
<ele>354.1</ele>
<time>2015-05-01T11:54:34Z</time>
</trkpt>
<trkpt lat="34.9032415" lon="33.4024876">
<ele>356.9</ele>
<time>2015-05-01T11:54:44Z</time>
</trkpt>
<trkpt lat="34.9032647" lon="33.4026266">
<ele>356.4</ele>
<time>2015-05-01T11:54:50Z</time>
</trkpt>
<trkpt lat="34.9032085" lon="33.4024547">
<ele>357.4</ele>
<time>2015-05-01T11:55:13Z</time>
</trkpt>
<trkpt lat="34.9036786" lon="33.4021347">
<ele>354.3</ele>
<time>2015-05-01T11:56:01Z</time>
</trkpt>
<trkpt lat="34.9046363" lon="33.4022600">
<ele>351.3</ele>
<time>2015-05-01T11:56:22Z</time>
</trkpt>
<trkpt lat="34.9118458" lon="33.4056818">
<ele>324.7</ele>
<time>2015-05-01T12:00:00Z</time>
</trkpt>
<trkpt lat="34.9124984" lon="33.4061330">
<ele>323.1</ele>
<time>2015-05-01T12:00:08Z</time>
</trkpt>
<trkpt lat="34.9146283" lon="33.4084950">
<ele>318.5</ele>
<time>2015-05-01T12:00:46Z</time>
</trkpt>
<trkpt lat="34.9158454" lon="33.4096010">
<ele>315.7</ele>
<time>2015-05-01T12:01:15Z</time>
</trkpt>
<trkpt lat="34.9199508" lon="33.4116503">
<ele>306.9</ele>
<time>2015-05-01T12:03:40Z</time>
</trkpt>
<trkpt lat="34.9223719" lon="33.4134221">
<ele>299.1</ele>
<time>2015-05-01T12:04:25Z</time>
</trkpt>
<trkpt lat="34.9233514" lon="33.4138818">
<ele>298.3</ele>
<time>2015-05-01T12:04:44Z</time>
</trkpt>
<trkpt lat="34.9252811" lon="33.4140396">
<ele>294.4</ele>
<time>2015-05-01T12:05:21Z</time>
</trkpt>
<trkpt lat="34.9304748" lon="33.4120942">
<ele>277.1</ele>
<time>2015-05-01T12:07:34Z</time>
</trkpt>
<trkpt lat="34.9313915" lon="33.4119711">
<ele>277.0</ele>
<time>2015-05-01T12:07:53Z</time>
</trkpt>
<trkpt lat="34.9320123" lon="33.4121576">
<ele>275.5</ele>
<time>2015-05-01T12:08:05Z</time>
</trkpt>
<trkpt lat="34.9332517" lon="33.4130762">
<ele>275.1</ele>
<time>2015-05-01T12:08:29Z</time>
</trkpt>
<trkpt lat="34.9339430" lon="33.4132681">
<ele>273.8</ele>
<time>2015-05-01T12:08:41Z</time>
</trkpt>
<trkpt lat="34.9374336" lon="33.4125350">
<ele>268.7</ele>
<time>2015-05-01T12:10:29Z</time>
</trkpt>
<trkpt lat="34.9402200" lon="33.4126422">
<ele>262.7</ele>
<time>2015-05-01T12:11:24Z</time>
</trkpt>
<trkpt lat="34.9428565" lon="33.4139186">
<ele>260.8</ele>
<time>2015-05-01T12:12:19Z</time>
</trkpt>
<trkpt lat="34.9425423" lon="33.4138615">
<ele>260.7</ele>
<time>2015-05-01T12:12:59Z</time>
</trkpt>
<trkpt lat="34.9421353" lon="33.4145488">
<ele>256.8</ele>
<time>2015-05-01T12:13:40Z</time>
</trkpt>
<trkpt lat="34.9425129" lon="33.4139318">
<ele>260.7</ele>
<time>2015-05-01T12:14:24Z</time>
</trkpt>
<trkpt lat="34.9427165" lon="33.4139190">
<ele>261.3</ele>
<time>2015-05-01T12:14:32Z</time>
</trkpt>
<trkpt lat="34.9453494" lon="33.4150722">
<ele>261.0</ele>
<time>2015-05-01T12:15:57Z</time>
</trkpt>
<trkpt lat="34.9493230" lon="33.4179366">
<ele>263.9</ele>
<time>2015-05-01T12:17:46Z</time>
</trkpt>
<trkpt lat="34.9508682" lon="33.4186334">
<ele>259.4</ele>
<time>2015-05-01T12:18:42Z</time>
</trkpt>
<trkpt lat="34.9495026" lon="33.4188104">
<ele>262.0</ele>
<time>2015-05-01T12:19:22Z</time>
</trkpt>
<trkpt lat="34.9475504" lon="33.4213334">
<ele>250.7</ele>
<time>2015-05-01T12:20:38Z</time>
</trkpt>
<trkpt lat="34.9468879" lon="33.4224421">
<ele>244.9</ele>
<time>2015-05-01T12:21:27Z</time>
</trkpt>
<trkpt lat="34.9461696" lon="33.4224310">
<ele>245.5</ele>
<time>2015-05-01T12:22:31Z</time>
</trkpt>
<trkpt lat="34.9451736" lon="33.4227380">
<ele>246.4</ele>
<time>2015-05-01T12:23:16Z</time>
</trkpt>
<trkpt lat="34.9440402" lon="33.4219871">
<ele>251.9</ele>
<time>2015-05-01T12:23:58Z</time>
</trkpt>
<trkpt lat="34.9438051" lon="33.4224054">
<ele>258.0</ele>
<time>2015-05-01T12:24:24Z</time>
</trkpt>
<trkpt lat="34.9438544" lon="33.4230656">
<ele>258.8</ele>
<time>2015-05-01T12:25:05Z</time>
</trkpt>
<trkpt lat="34.9443137" lon="33.4237013">
<ele>260.6</ele>
<time>2015-05-01T12:25:45Z</time>
</trkpt>
<trkpt lat="34.9442762" lon="33.4235893">
<ele>258.5</ele>
<time>2015-05-01T12:26:01Z</time>
</trkpt>
<trkpt lat="34.9458163" lon="33.4238354">
<ele>249.5</ele>
<time>2015-05-01T12:26:47Z</time>
</trkpt>
<trkpt lat="34.9468896" lon="33.4255831">
<ele>248.2</ele>
<time>2015-05-01T12:27:37Z</time>
</trkpt>
<trkpt lat="34.9471038" lon="33.4265203">
<ele>245.2</ele>
<time>2015-05-01T12:27:52Z</time>
</trkpt>
<trkpt lat="34.9483775" lon="33.4269450">
<ele>240.9</ele>
<time>2015-05-01T12:28:29Z</time>
</trkpt>
<trkpt lat="34.9487481" lon="33.4280908">
<ele>243.7</ele>
<time>2015-05-01T12:29:00Z</time>
</trkpt>
<trkpt lat="34.9493251" lon="33.4281040">
<ele>244.6</ele>
<time>2015-05-01T12:29:42Z</time>
</trkpt>
<trkpt lat="34.9496347" lon="33.4283932">
<ele>243.0</ele>
<time>2015-05-01T12:29:59Z</time>
</trkpt>
<trkpt lat="34.9501122" lon="33.4284950">
<ele>243.5</ele>
<time>2015-05-01T12:30:27Z</time>
</trkpt>
<trkpt lat="34.9497125" lon="33.4274435">
<ele>248.5</ele>
<time>2015-05-01T12:31:43Z</time>
</trkpt>
<trkpt lat="34.9500047" lon="33.4270469">
<ele>250.7</ele>
<time>2015-05-01T12:32:04Z</time>
</trkpt>
<trkpt lat="34.9499641" lon="33.4268888">
<ele>251.7</ele>
<time>2015-05-01T12:32:14Z</time>
</trkpt>
<trkpt lat="34.9501385" lon="33.4271748">
<ele>248.2</ele>
<time>2015-05-01T12:32:31Z</time>
</trkpt>
<trkpt lat="34.9504779" lon="33.4272682">
<ele>246.7</ele>
<time>2015-05-01T12:32:42Z</time>
</trkpt>
<trkpt lat="34.9517671" lon="33.4226278">
<ele>255.4</ele>
<time>2015-05-01T12:34:30Z</time>
</trkpt>
<trkpt lat="34.9514644" lon="33.4186692">
<ele>259.0</ele>
<time>2015-05-01T12:36:02Z</time>
</trkpt>
<trkpt lat="34.9538726" lon="33.4193382">
<ele>263.2</ele>
<time>2015-05-01T12:37:37Z</time>
</trkpt>
<trkpt lat="34.9549016" lon="33.4192088">
<ele>262.8</ele>
<time>2015-05-01T12:38:02Z</time>
</trkpt>
<trkpt lat="34.9594098" lon="33.4162603">
<ele>245.1</ele>
<time>2015-05-01T12:39:52Z</time>
</trkpt>
<trkpt lat="34.9615084" lon="33.4156532">
<ele>242.9</ele>
<time>2015-05-01T12:40:38Z</time>
</trkpt>
<trkpt lat="34.9628074" lon="33.4148282">
<ele>242.4</ele>
<time>2015-05-01T12:41:10Z</time>
</trkpt>
<trkpt lat="34.9633993" lon="33.4136166">
<ele>246.4</ele>
<time>2015-05-01T12:41:55Z</time>
</trkpt>
<trkpt lat="34.9631896" lon="33.4134138">
<ele>249.0</ele>
<time>2015-05-01T12:42:05Z</time>
</trkpt>
<trkpt lat="34.9627065" lon="33.4135749">
<ele>247.4</ele>
<time>2015-05-01T12:42:34Z</time>
</trkpt>
<trkpt lat="34.9632487" lon="33.4134138">
<ele>248.4</ele>
<time>2015-05-01T12:44:06Z</time>
</trkpt>
<trkpt lat="34.9634335" lon="33.4136772">
<ele>245.5</ele>
<time>2015-05-01T12:44:14Z</time>
</trkpt>
<trkpt lat="34.9630279" lon="33.4143173">
<ele>242.2</ele>
<time>2015-05-01T12:44:31Z</time>
</trkpt>
<trkpt lat="34.9630271" lon="33.4146746">
<ele>241.7</ele>
<time>2015-05-01T12:44:45Z</time>
</trkpt>
<trkpt lat="34.9655295" lon="33.4128339">
<ele>229.0</ele>
<time>2015-05-01T12:45:35Z</time>
</trkpt>
<trkpt lat="34.9663988" lon="33.4124363">
<ele>226.9</ele>
<time>2015-05-01T12:45:48Z</time>
</trkpt>
<trkpt lat="34.9731219" lon="33.4121758">
<ele>218.1</ele>
<time>2015-05-01T12:47:35Z</time>
</trkpt>
<trkpt lat="34.9757750" lon="33.4126520">
<ele>216.0</ele>
<time>2015-05-01T12:48:34Z</time>
</trkpt>
<trkpt lat="34.9775740" lon="33.4121969">
<ele>220.2</ele>
<time>2015-05-01T12:49:16Z</time>
</trkpt>
<trkpt lat="34.9806100" lon="33.4117322">
<ele>226.2</ele>
<time>2015-05-01T12:50:45Z</time>
</trkpt>
<trkpt lat="34.9879379" lon="33.4076306">
<ele>230.5</ele>
<time>2015-05-01T12:55:59Z</time>
</trkpt>
<trkpt lat="34.9902632" lon="33.4068679">
<ele>231.3</ele>
<time>2015-05-01T12:56:48Z</time>
</trkpt>
<trkpt lat="34.9929702" lon="33.4054285">
<ele>235.2</ele>
<time>2015-05-01T12:58:05Z</time>
</trkpt>
<trkpt lat="34.9945530" lon="33.4045031">
<ele>238.7</ele>
<time>2015-05-01T12:59:00Z</time>
</trkpt>
<trkpt lat="34.9972821" lon="33.4023967">
<ele>244.2</ele>
<time>2015-05-01T13:00:34Z</time>
</trkpt>
<trkpt lat="34.9981734" lon="33.4013195">
<ele>244.6</ele>
<time>2015-05-01T13:01:08Z</time>
</trkpt>
<trkpt lat="35.0012923" lon="33.3959208">
<ele>252.6</ele>
<time>2015-05-01T13:03:15Z</time>
</trkpt>
<trkpt lat="35.0026414" lon="33.3942921">
<ele>253.1</ele>
<time>2015-05-01T13:03:57Z</time>
</trkpt>
<trkpt lat="35.0053195" lon="33.3937916">
<ele>255.1</ele>
<time>2015-05-01T13:05:20Z</time>
</trkpt>
<trkpt lat="35.0084733" lon="33.3939635">
<ele>253.1</ele>
<time>2015-05-01T13:06:23Z</time>
</trkpt>
<trkpt lat="35.0088297" lon="33.3941197">
<ele>252.7</ele>
<time>2015-05-01T13:06:38Z</time>
</trkpt>
<trkpt lat="35.0092331" lon="33.3938066">
<ele>250.5</ele>
<time>2015-05-01T13:09:33Z</time>
</trkpt>
<trkpt lat="35.0115518" lon="33.3935229">
<ele>246.5</ele>
<time>2015-05-01T13:10:24Z</time>
</trkpt>
<trkpt lat="35.0139427" lon="33.3939783">
<ele>244.9</ele>
<time>2015-05-01T13:11:23Z</time>
</trkpt>
<trkpt lat="35.0131138" lon="33.3937937">
<ele>244.4</ele>
<time>2015-05-01T13:12:25Z</time>
</trkpt>
<trkpt lat="35.0129720" lon="33.3935192">
<ele>244.5</ele>
<time>2015-05-01T13:13:09Z</time>
</trkpt>
<trkpt lat="35.0131539" lon="33.3938354">
<ele>244.5</ele>
<time>2015-05-01T13:13:22Z</time>
</trkpt>
<trkpt lat="35.0142490" lon="33.3939870">
<ele>242.0</ele>
<time>2015-05-01T13:13:53Z</time>
</trkpt>
<trkpt lat="35.0143588" lon="33.3936964">
<ele>242.7</ele>
<time>2015-05-01T13:14:05Z</time>
</trkpt>
<trkpt lat="35.0140647" lon="33.3915455">
<ele>245.5</ele>
<time>2015-05-01T13:14:44Z</time>
</trkpt>
<trkpt lat="35.0135321" lon="33.3899770">
<ele>251.4</ele>
<time>2015-05-01T13:15:18Z</time>
</trkpt>
<trkpt lat="35.0135905" lon="33.3888681">
<ele>249.4</ele>
<time>2015-05-01T13:16:05Z</time>
</trkpt>
<trkpt lat="35.0136808" lon="33.3892047">
<ele>248.5</ele>
<time>2015-05-01T13:16:23Z</time>
</trkpt>
<trkpt lat="35.0142833" lon="33.3891841">
<ele>243.6</ele>
<time>2015-05-01T13:16:46Z</time>
</trkpt>
<trkpt lat="35.0141710" lon="33.3897670">
<ele>245.5</ele>
<time>2015-05-01T13:17:04Z</time>
</trkpt>
<trkpt lat="35.0155933" lon="33.3924077">
<ele>240.1</ele>
<time>2015-05-01T13:18:09Z</time>
</trkpt>
<trkpt lat="35.0142773" lon="33.3928314">
<ele>244.1</ele>
<time>2015-05-01T13:18:42Z</time>
</trkpt>
<trkpt lat="35.0144050" lon="33.3940170">
<ele>241.0</ele>
<time>2015-05-01T13:19:20Z</time>
</trkpt>
<trkpt lat="35.0141944" lon="33.3929338">
<ele>244.3</ele>
<time>2015-05-01T13:20:25Z</time>
</trkpt>
<trkpt lat="35.0144073" lon="33.3940746">
<ele>241.2</ele>
<time>2015-05-01T13:21:31Z</time>
</trkpt>
<trkpt lat="35.0174671" lon="33.3947448">
<ele>238.2</ele>
<time>2015-05-01T13:25:16Z</time>
</trkpt>
<trkpt lat="35.0148237" lon="33.3943325">
<ele>242.5</ele>
<time>2015-05-01T13:37:36Z</time>
</trkpt>
<trkpt lat="35.0146532" lon="33.3945043">
<ele>241.4</ele>
<time>2015-05-01T13:37:47Z</time>
</trkpt>
<trkpt lat="35.0146685" lon="33.3955734">
<ele>241.0</ele>
<time>2015-05-01T13:38:13Z</time>
</trkpt>
<trkpt lat="35.0181492" lon="33.4130768">
<ele>231.8</ele>
<time>2015-05-01T13:43:28Z</time>
</trkpt>
<trkpt lat="35.0185405" lon="33.4148697">
<ele>230.3</ele>
<time>2015-05-01T13:43:58Z</time>
</trkpt>
<trkpt lat="35.0191013" lon="33.4164522">
<ele>230.0</ele>
<time>2015-05-01T13:44:24Z</time>
</trkpt>
<trkpt lat="35.0191528" lon="33.4180432">
<ele>228.6</ele>
<time>2015-05-01T13:44:46Z</time>
</trkpt>
<trkpt lat="35.0195765" lon="33.4190985">
<ele>227.4</ele>
<time>2015-05-01T13:45:33Z</time>
</trkpt>
<trkpt lat="35.0196956" lon="33.4234049">
<ele>227.7</ele>
<time>2015-05-01T13:47:20Z</time>
</trkpt>
<trkpt lat="35.0196225" lon="33.4240820">
<ele>227.7</ele>
<time>2015-05-01T13:47:46Z</time>
</trkpt>
<trkpt lat="35.0194768" lon="33.4242289">
<ele>227.7</ele>
<time>2015-05-01T13:48:32Z</time>
</trkpt>
<trkpt lat="35.0197531" lon="33.4242458">
<ele>227.2</ele>
<time>2015-05-01T13:48:39Z</time>
</trkpt>
<trkpt lat="35.0196217" lon="33.4238780">
<ele>228.1</ele>
<time>2015-05-01T13:48:48Z</time>
</trkpt>
<trkpt lat="35.0195637" lon="33.4221391">
<ele>228.4</ele>
<time>2015-05-01T13:49:23Z</time>
</trkpt>
<trkpt lat="35.0192808" lon="33.4217957">
<ele>227.2</ele>
<time>2015-05-01T13:49:37Z</time>
</trkpt>
<trkpt lat="35.0192043" lon="33.4224207">
<ele>228.4</ele>
<time>2015-05-01T13:50:04Z</time>
</trkpt>
<trkpt lat="35.0194138" lon="33.4229478">
<ele>228.2</ele>
<time>2015-05-01T13:50:20Z</time>
</trkpt>
<trkpt lat="35.0189623" lon="33.4233656">
<ele>228.7</ele>
<time>2015-05-01T13:50:49Z</time>
</trkpt>
<trkpt lat="35.0163894" lon="33.4234197">
<ele>246.9</ele>
<time>2015-05-01T13:52:25Z</time>
</trkpt>
<trkpt lat="35.0161551" lon="33.4237720">
<ele>250.0</ele>
<time>2015-05-01T13:52:49Z</time>
</trkpt>
<trkpt lat="35.0159637" lon="33.4234322">
<ele>253.3</ele>
<time>2015-05-01T13:53:45Z</time>
</trkpt>
<trkpt lat="35.0161771" lon="33.4237828">
<ele>249.6</ele>
<time>2015-05-01T13:54:17Z</time>
</trkpt>
<trkpt lat="35.0163794" lon="33.4234018">
<ele>247.1</ele>
<time>2015-05-01T14:03:50Z</time>
</trkpt>
<trkpt lat="35.0189672" lon="33.4233295">
<ele>228.7</ele>
<time>2015-05-01T14:05:46Z</time>
</trkpt>
<trkpt lat="35.0194157" lon="33.4229364">
<ele>228.2</ele>
<time>2015-05-01T14:06:20Z</time>
</trkpt>
<trkpt lat="35.0191917" lon="33.4224074">
<ele>228.4</ele>
<time>2015-05-01T14:06:36Z</time>
</trkpt>
<trkpt lat="35.0192962" lon="33.4220010">
<ele>227.6</ele>
<time>2015-05-01T14:06:50Z</time>
</trkpt>
<trkpt lat="35.0195375" lon="33.4220669">
<ele>228.1</ele>
<time>2015-05-01T14:07:01Z</time>
</trkpt>
<trkpt lat="35.0196618" lon="33.4223026">
<ele>228.4</ele>
<time>2015-05-01T14:07:12Z</time>
</trkpt>
<trkpt lat="35.0197264" lon="33.4239016">
<ele>227.7</ele>
<time>2015-05-01T14:07:48Z</time>
</trkpt>
<trkpt lat="35.0198719" lon="33.4241488">
<ele>227.0</ele>
<time>2015-05-01T14:07:56Z</time>
</trkpt>
<trkpt lat="35.0188583" lon="33.4248650">
<ele>229.2</ele>
<time>2015-05-01T14:09:12Z</time>
</trkpt>
<trkpt lat="35.0181884" lon="33.4251324">
<ele>230.9</ele>
<time>2015-05-01T14:09:35Z</time>
</trkpt>
<trkpt lat="35.0144946" lon="33.4256548">
<ele>243.0</ele>
<time>2015-05-01T14:11:33Z</time>
</trkpt>
<trkpt lat="35.0122502" lon="33.4269606">
<ele>243.1</ele>
<time>2015-05-01T14:12:37Z</time>
</trkpt>
<trkpt lat="35.0108770" lon="33.4272869">
<ele>244.4</ele>
<time>2015-05-01T14:13:05Z</time>
</trkpt>
<trkpt lat="35.0089165" lon="33.4280716">
<ele>244.5</ele>
<time>2015-05-01T14:13:39Z</time>
</trkpt>
<trkpt lat="35.0076814" lon="33.4288149">
<ele>241.3</ele>
<time>2015-05-01T14:14:26Z</time>
</trkpt>
<trkpt lat="35.0060361" lon="33.4302561">
<ele>237.2</ele>
<time>2015-05-01T14:15:00Z</time>
</trkpt>
<trkpt lat="35.0049344" lon="33.4321527">
<ele>234.9</ele>
<time>2015-05-01T14:15:34Z</time>
</trkpt>
<trkpt lat="35.0044121" lon="33.4348300">
<ele>235.5</ele>
<time>2015-05-01T14:16:20Z</time>
</trkpt>
<trkpt lat="35.0036069" lon="33.4369881">
<ele>233.3</ele>
<time>2015-05-01T14:17:06Z</time>
</trkpt>
<trkpt lat="35.0033606" lon="33.4386005">
<ele>234.2</ele>
<time>2015-05-01T14:17:40Z</time>
</trkpt>
<trkpt lat="35.0035558" lon="33.4386253">
<ele>236.6</ele>
<time>2015-05-01T14:17:48Z</time>
</trkpt>
<trkpt lat="35.0038717" lon="33.4390328">
<ele>242.6</ele>
<time>2015-05-01T14:18:10Z</time>
</trkpt>
<trkpt lat="35.0045840" lon="33.4392037">
<ele>240.7</ele>
<time>2015-05-01T14:18:40Z</time>
</trkpt>
<trkpt lat="35.0038174" lon="33.4389903">
<ele>242.7</ele>
<time>2015-05-01T14:24:40Z</time>
</trkpt>
<trkpt lat="35.0034616" lon="33.4385480">
<ele>234.8</ele>
<time>2015-05-01T14:24:54Z</time>
</trkpt>
<trkpt lat="35.0027326" lon="33.4399002">
<ele>235.9</ele>
<time>2015-05-01T14:25:30Z</time>
</trkpt>
<trkpt lat="35.0024104" lon="33.4425510">
<ele>233.6</ele>
<time>2015-05-01T14:26:09Z</time>
</trkpt>
<trkpt lat="35.0016350" lon="33.4459940">
<ele>236.8</ele>
<time>2015-05-01T14:27:00Z</time>
</trkpt>
<trkpt lat="35.0011602" lon="33.4489159">
<ele>239.5</ele>
<time>2015-05-01T14:27:53Z</time>
</trkpt>
<trkpt lat="34.9998604" lon="33.4528290">
<ele>243.1</ele>
<time>2015-05-01T14:29:12Z</time>
</trkpt>
<trkpt lat="34.9993701" lon="33.4536362">
<ele>243.1</ele>
<time>2015-05-01T14:29:32Z</time>
</trkpt>
<trkpt lat="34.9988314" lon="33.4541540">
<ele>243.1</ele>
<time>2015-05-01T14:29:52Z</time>
</trkpt>
<trkpt lat="34.9953064" lon="33.4561592">
<ele>250.1</ele>
<time>2015-05-01T14:31:14Z</time>
</trkpt>
<trkpt lat="34.9945203" lon="33.4568413">
<ele>249.7</ele>
<time>2015-05-01T14:31:35Z</time>
</trkpt>
<trkpt lat="34.9937974" lon="33.4580872">
<ele>239.8</ele>
<time>2015-05-01T14:31:52Z</time>
</trkpt>
<trkpt lat="34.9935820" lon="33.4588252">
<ele>238.6</ele>
<time>2015-05-01T14:32:01Z</time>
</trkpt>
<trkpt lat="34.9936461" lon="33.4592618">
<ele>239.7</ele>
<time>2015-05-01T14:32:08Z</time>
</trkpt>
<trkpt lat="34.9934491" lon="33.4596926">
<ele>238.7</ele>
<time>2015-05-01T14:32:17Z</time>
</trkpt>
<trkpt lat="34.9935033" lon="33.4609476">
<ele>243.1</ele>
<time>2015-05-01T14:32:48Z</time>
</trkpt>
<trkpt lat="34.9945194" lon="33.4650379">
<ele>256.7</ele>
<time>2015-05-01T14:35:06Z</time>
</trkpt>
<trkpt lat="34.9949604" lon="33.4677369">
<ele>254.5</ele>
<time>2015-05-01T14:35:58Z</time>
</trkpt>
<trkpt lat="34.9947545" lon="33.4698673">
<ele>253.0</ele>
<time>2015-05-01T14:36:32Z</time>
</trkpt>
<trkpt lat="34.9943458" lon="33.4719072">
<ele>251.6</ele>
<time>2015-05-01T14:37:05Z</time>
</trkpt>
<trkpt lat="34.9943851" lon="33.4742127">
<ele>251.3</ele>
<time>2015-05-01T14:37:33Z</time>
</trkpt>
<trkpt lat="34.9942217" lon="33.4752586">
<ele>248.2</ele>
<time>2015-05-01T14:37:45Z</time>
</trkpt>
<trkpt lat="34.9945122" lon="33.4793788">
<ele>240.2</ele>
<time>2015-05-01T14:38:25Z</time>
</trkpt>
<trkpt lat="34.9944198" lon="33.4820822">
<ele>236.8</ele>
<time>2015-05-01T14:38:58Z</time>
</trkpt>
<trkpt lat="34.9946910" lon="33.4834627">
<ele>235.7</ele>
<time>2015-05-01T14:39:16Z</time>
</trkpt>
<trkpt lat="34.9950785" lon="33.4849508">
<ele>235.8</ele>
<time>2015-05-01T14:39:36Z</time>
</trkpt>
<trkpt lat="34.9957667" lon="33.4864275">
<ele>231.9</ele>
<time>2015-05-01T14:39:59Z</time>
</trkpt>
<trkpt lat="34.9998802" lon="33.4903112">
<ele>219.8</ele>
<time>2015-05-01T14:41:17Z</time>
</trkpt>
<trkpt lat="35.0011118" lon="33.4920653">
<ele>214.2</ele>
<time>2015-05-01T14:41:37Z</time>
</trkpt>
<trkpt lat="35.0016606" lon="33.4937436">
<ele>214.7</ele>
<time>2015-05-01T14:42:01Z</time>
</trkpt>
<trkpt lat="35.0024190" lon="33.4995327">
<ele>225.8</ele>
<time>2015-05-01T14:44:28Z</time>
</trkpt>
<trkpt lat="34.9976988" lon="33.5025001">
<ele>217.5</ele>
<time>2015-05-01T14:45:51Z</time>
</trkpt>
<trkpt lat="34.9938150" lon="33.5067231">
<ele>207.5</ele>
<time>2015-05-01T14:47:02Z</time>
</trkpt>
<trkpt lat="34.9876713" lon="33.5092718">
<ele>190.3</ele>
<time>2015-05-01T14:48:03Z</time>
</trkpt>
<trkpt lat="34.9868269" lon="33.5098355">
<ele>187.8</ele>
<time>2015-05-01T14:48:15Z</time>
</trkpt>
<trkpt lat="34.9858070" lon="33.5110051">
<ele>186.2</ele>
<time>2015-05-01T14:48:34Z</time>
</trkpt>
<trkpt lat="34.9830780" lon="33.5152441">
<ele>173.2</ele>
<time>2015-05-01T14:50:04Z</time>
</trkpt>
<trkpt lat="34.9825784" lon="33.5155751">
<ele>175.4</ele>
<time>2015-05-01T14:50:14Z</time>
</trkpt>
<trkpt lat="34.9814044" lon="33.5158121">
<ele>170.5</ele>
<time>2015-05-01T14:50:38Z</time>
</trkpt>
<trkpt lat="34.9807961" lon="33.5164026">
<ele>169.4</ele>
<time>2015-05-01T14:50:54Z</time>
</trkpt>
<trkpt lat="34.9786598" lon="33.5202687">
<ele>172.7</ele>
<time>2015-05-01T14:53:03Z</time>
</trkpt>
<trkpt lat="34.9762393" lon="33.5270777">
<ele>167.8</ele>
<time>2015-05-01T14:55:13Z</time>
</trkpt>
<trkpt lat="34.9735288" lon="33.5310864">
<ele>150.6</ele>
<time>2015-05-01T14:56:14Z</time>
</trkpt>
<trkpt lat="34.9711592" lon="33.5386762">
<ele>125.1</ele>
<time>2015-05-01T14:57:19Z</time>
</trkpt>
<trkpt lat="34.9696370" lon="33.5409114">
<ele>122.7</ele>
<time>2015-05-01T14:58:20Z</time>
</trkpt>
<trkpt lat="34.9669109" lon="33.5443243">
<ele>110.6</ele>
<time>2015-05-01T14:59:12Z</time>
</trkpt>
<trkpt lat="34.9651543" lon="33.5478694">
<ele>110.3</ele>
<time>2015-05-01T14:59:57Z</time>
</trkpt>
<trkpt lat="34.9640468" lon="33.5515928">
<ele>102.6</ele>
<time>2015-05-01T15:00:44Z</time>
</trkpt>
<trkpt lat="34.9640599" lon="33.5560645">
<ele>96.3</ele>
<time>2015-05-01T15:01:38Z</time>
</trkpt>
<trkpt lat="34.9638427" lon="33.5573981">
<ele>93.7</ele>
<time>2015-05-01T15:01:55Z</time>
</trkpt>
<trkpt lat="34.9627944" lon="33.5598656">
<ele>90.1</ele>
<time>2015-05-01T15:02:28Z</time>
</trkpt>
<trkpt lat="34.9614661" lon="33.5616813">
<ele>86.7</ele>
<time>2015-05-01T15:03:01Z</time>
</trkpt>
<trkpt lat="34.9586414" lon="33.5643920">
<ele>79.8</ele>
<time>2015-05-01T15:03:58Z</time>
</trkpt>
<trkpt lat="34.9561322" lon="33.5653912">
<ele>74.4</ele>
<time>2015-05-01T15:04:41Z</time>
</trkpt>
<trkpt lat="34.9551491" lon="33.5660817">
<ele>71.7</ele>
<time>2015-05-01T15:05:00Z</time>
</trkpt>
<trkpt lat="34.9509826" lon="33.5704241">
<ele>71.9</ele>
<time>2015-05-01T15:06:38Z</time>
</trkpt>
<trkpt lat="34.9504378" lon="33.5713792">
<ele>73.2</ele>
<time>2015-05-01T15:06:58Z</time>
</trkpt>
<trkpt lat="34.9496856" lon="33.5736416">
<ele>72.0</ele>
<time>2015-05-01T15:09:01Z</time>
</trkpt>
<trkpt lat="34.9491699" lon="33.5733977">
<ele>70.4</ele>
<time>2015-05-01T15:10:26Z</time>
</trkpt>
<trkpt lat="34.9493767" lon="33.5737307">
<ele>71.1</ele>
<time>2015-05-01T15:11:53Z</time>
</trkpt>
<trkpt lat="34.9489273" lon="33.5730317">
<ele>71.1</ele>
<time>2015-05-01T15:14:02Z</time>
</trkpt>
<trkpt lat="34.9487753" lon="33.5731458">
<ele>70.6</ele>
<time>2015-05-01T15:14:11Z</time>
</trkpt>
<trkpt lat="34.9488417" lon="33.5729394">
<ele>71.6</ele>
<time>2015-05-01T15:14:18Z</time>
</trkpt>
<trkpt lat="34.9482882" lon="33.5720913">
<ele>69.7</ele>
<time>2015-05-01T15:14:35Z</time>
</trkpt>
<trkpt lat="34.9477719" lon="33.5703543">
<ele>69.7</ele>
<time>2015-05-01T15:15:04Z</time>
</trkpt>
<trkpt lat="34.9452223" lon="33.5654798">
<ele>76.3</ele>
<time>2015-05-01T15:17:02Z</time>
</trkpt>
<trkpt lat="34.9454700" lon="33.5656985">
<ele>75.6</ele>
<time>2015-05-01T15:18:08Z</time>
</trkpt>
<trkpt lat="34.9478993" lon="33.5704550">
<ele>69.3</ele>
<time>2015-05-01T15:19:20Z</time>
</trkpt>
<trkpt lat="34.9484322" lon="33.5722960">
<ele>70.0</ele>
<time>2015-05-01T15:19:47Z</time>
</trkpt>
<trkpt lat="34.9492712" lon="33.5734438">
<ele>70.8</ele>
<time>2015-05-01T15:20:08Z</time>
</trkpt>
<trkpt lat="34.9494704" lon="33.5735222">
<ele>71.3</ele>
<time>2015-05-01T15:20:12Z</time>
</trkpt>
<trkpt lat="34.9496340" lon="33.5734624">
<ele>72.0</ele>
<time>2015-05-01T15:20:18Z</time>
</trkpt>
<trkpt lat="34.9499842" lon="33.5725477">
<ele>72.7</ele>
<time>2015-05-01T15:20:55Z</time>
</trkpt>
<trkpt lat="34.9503299" lon="33.5724784">
<ele>72.3</ele>
<time>2015-05-01T15:21:09Z</time>
</trkpt>
<trkpt lat="34.9507182" lon="33.5727040">
<ele>65.9</ele>
<time>2015-05-01T15:21:16Z</time>
</trkpt>
<trkpt lat="34.9514280" lon="33.5739730">
<ele>65.2</ele>
<time>2015-05-01T15:21:30Z</time>
</trkpt>
<trkpt lat="34.9515230" lon="33.5745223">
<ele>64.8</ele>
<time>2015-05-01T15:21:36Z</time>
</trkpt>
<trkpt lat="34.9514183" lon="33.5749201">
<ele>64.1</ele>
<time>2015-05-01T15:21:42Z</time>
</trkpt>
<trkpt lat="34.9508883" lon="33.5752977">
<ele>65.1</ele>
<time>2015-05-01T15:21:53Z</time>
</trkpt>
<trkpt lat="34.9498885" lon="33.5752223">
<ele>70.6</ele>
<time>2015-05-01T15:22:28Z</time>
</trkpt>
<trkpt lat="34.9496245" lon="33.5746995">
<ele>70.6</ele>
<time>2015-05-01T15:22:56Z</time>
</trkpt>
<trkpt lat="34.9492405" lon="33.5749934">
<ele>69.6</ele>
<time>2015-05-01T15:23:08Z</time>
</trkpt>
<trkpt lat="34.9465930" lon="33.5783030">
<ele>61.0</ele>
<time>2015-05-01T15:24:05Z</time>
</trkpt>
<trkpt lat="34.9445545" lon="33.5804469">
<ele>61.4</ele>
<time>2015-05-01T15:24:52Z</time>
</trkpt>
<trkpt lat="34.9440899" lon="33.5812496">
<ele>60.5</ele>
<time>2015-05-01T15:25:13Z</time>
</trkpt>
<trkpt lat="34.9438656" lon="33.5812292">
<ele>59.8</ele>
<time>2015-05-01T15:25:37Z</time>
</trkpt>
<trkpt lat="34.9436761" lon="33.5814586">
<ele>59.2</ele>
<time>2015-05-01T15:25:47Z</time>
</trkpt>
<trkpt lat="34.9383430" lon="33.5884557">
<ele>47.8</ele>
<time>2015-05-01T15:27:34Z</time>
</trkpt>
<trkpt lat="34.9376730" lon="33.5894046">
<ele>45.6</ele>
<time>2015-05-01T15:27:49Z</time>
</trkpt>
<trkpt lat="34.9375700" lon="33.5899235">
<ele>47.5</ele>
<time>2015-05-01T15:27:56Z</time>
</trkpt>
<trkpt lat="34.9368409" lon="33.5904886">
<ele>43.7</ele>
<time>2015-05-01T15:28:08Z</time>
</trkpt>
<trkpt lat="34.9318304" lon="33.5973291">
<ele>35.0</ele>
<time>2015-05-01T15:30:10Z</time>
</trkpt>
<trkpt lat="34.9287576" lon="33.6035044">
<ele>27.9</ele>
<time>2015-05-01T15:31:31Z</time>
</trkpt>
<trkpt lat="34.9286874" lon="33.6041209">
<ele>28.3</ele>
<time>2015-05-01T15:31:40Z</time>
</trkpt>
<trkpt lat="34.9282238" lon="33.6045324">
<ele>25.6</ele>
<time>2015-05-01T15:31:48Z</time>
</trkpt>
<trkpt lat="34.9271678" lon="33.6062237">
<ele>22.5</ele>
<time>2015-05-01T15:32:14Z</time>
</trkpt>
<trkpt lat="34.9245211" lon="33.6093993">
<ele>20.0</ele>
<time>2015-05-01T15:33:09Z</time>
</trkpt>
<trkpt lat="34.9229756" lon="33.6119261">
<ele>18.4</ele>
<time>2015-05-01T15:33:53Z</time>
</trkpt>
<trkpt lat="34.9229792" lon="33.6120725">
<ele>18.1</ele>
<time>2015-05-01T15:33:57Z</time>
</trkpt>
<trkpt lat="34.9234745" lon="33.6123414">
<ele>16.6</ele>
<time>2015-05-01T15:34:18Z</time>
</trkpt>
<trkpt lat="34.9233613" lon="33.6129413">
<ele>18.5</ele>
<time>2015-05-01T15:34:32Z</time>
</trkpt>
<trkpt lat="34.9234098" lon="33.6160390">
<ele>15.2</ele>
<time>2015-05-01T15:35:24Z</time>
</trkpt>
<trkpt lat="34.9216695" lon="33.6166946">
<ele>15.7</ele>
<time>2015-05-01T15:36:26Z</time>
</trkpt>
<trkpt lat="34.9202731" lon="33.6166244">
<ele>18.8</ele>
<time>2015-05-01T15:37:04Z</time>
</trkpt>
<trkpt lat="34.9185522" lon="33.6194232">
<ele>14.7</ele>
<time>2015-05-01T15:37:52Z</time>
</trkpt>
<trkpt lat="34.9170884" lon="33.6235195">
<ele>10.5</ele>
<time>2015-05-01T15:39:17Z</time>
</trkpt>
<trkpt lat="34.9155988" lon="33.6266987">
<ele>11.4</ele>
<time>2015-05-01T15:40:06Z</time>
</trkpt>
<trkpt lat="34.9150683" lon="33.6284330">
<ele>10.3</ele>
<time>2015-05-01T15:40:33Z</time>
</trkpt>
<trkpt lat="34.9144780" lon="33.6297861">
<ele>8.5</ele>
<time>2015-05-01T15:40:52Z</time>
</trkpt>
<trkpt lat="34.9143394" lon="33.6306699">
<ele>8.2</ele>
<time>2015-05-01T15:41:07Z</time>
</trkpt>
<trkpt lat="34.9139937" lon="33.6313747">
<ele>8.7</ele>
<time>2015-05-01T15:41:34Z</time>
</trkpt>
<trkpt lat="34.9137971" lon="33.6316545">
<ele>5.5</ele>
<time>2015-05-01T15:41:40Z</time>
</trkpt>
<trkpt lat="34.9132132" lon="33.6317709">
<ele>3.5</ele>
<time>2015-05-01T15:41:52Z</time>
</trkpt>
<trkpt lat="34.9118180" lon="33.6326580">
<ele>4.8</ele>
<time>2015-05-01T15:42:20Z</time>
</trkpt>
<trkpt lat="34.9116887" lon="33.6332896">
<ele>6.1</ele>
<time>2015-05-01T15:42:36Z</time>
</trkpt>
<trkpt lat="34.9110814" lon="33.6333170">
<ele>6.5</ele>
<time>2015-05-01T15:42:55Z</time>
</trkpt>
<trkpt lat="34.9108552" lon="33.6331513">
<ele>4.9</ele>
<time>2015-05-01T15:43:05Z</time>
</trkpt>
<trkpt lat="34.9103331" lon="33.6333640">
<ele>4.5</ele>
<time>2015-05-01T15:43:24Z</time>
</trkpt>
<trkpt lat="34.9095288" lon="33.6329176">
<ele>6.8</ele>
<time>2015-05-01T15:43:46Z</time>
</trkpt>
<trkpt lat="34.9087680" lon="33.6332668">
<ele>6.1</ele>
<time>2015-05-01T15:44:02Z</time>
</trkpt>
<trkpt lat="34.9087948" lon="33.6338849">
<ele>2.9</ele>
<time>2015-05-01T15:44:20Z</time>
</trkpt>
<trkpt lat="34.9093504" lon="33.6353417">
<ele>3.6</ele>
<time>2015-05-01T15:44:43Z</time>
</trkpt>
<trkpt lat="34.9096114" lon="33.6366401">
<ele>5.3</ele>
<time>2015-05-01T15:45:22Z</time>
</trkpt>
<trkpt lat="34.9094842" lon="33.6371521">
<ele>5.0</ele>
<time>2015-05-01T15:45:32Z</time>
</trkpt>
<trkpt lat="34.9091418" lon="33.6371523">
<ele>4.8</ele>
<time>2015-05-01T15:45:47Z</time>
</trkpt>
<trkpt lat="34.9091581" lon="33.6378234">
<ele>1.8</ele>
<time>2015-05-01T15:46:40Z</time>
</trkpt>
<trkpt lat="34.9049895" lon="33.6378816">
<ele>0.2</ele>
<time>2015-05-01T15:51:03Z</time>
</trkpt>
<trkpt lat="34.9033362" lon="33.6377352">
<ele>1.6</ele>
<time>2015-05-01T15:51:59Z</time>
</trkpt>
<trkpt lat="34.9000298" lon="33.6381111">
<ele>1.9</ele>
<time>2015-05-01T15:55:15Z</time>
</trkpt>
<trkpt lat="34.8996677" lon="33.6385519">
<ele>1.5</ele>
<time>2015-05-01T15:56:09Z</time>
</trkpt>
<trkpt lat="34.9000394" lon="33.6390517">
<ele>0.6</ele>
<time>2015-05-01T15:56:25Z</time>
</trkpt>
<trkpt lat="34.8997377" lon="33.6385911">
<ele>1.5</ele>
<time>2015-05-01T15:58:29Z</time>
</trkpt>
<trkpt lat="34.8997817" lon="33.6381386">
<ele>2.6</ele>
<time>2015-05-01T16:00:48Z</time>
</trkpt>
<trkpt lat="34.8982495" lon="33.6382932">
<ele>4.4</ele>
<time>2015-05-01T16:02:06Z</time>
</trkpt>
<trkpt lat="34.8983099" lon="33.6381542">
<ele>5.7</ele>
<time>2015-05-01T16:02:41Z</time>
</trkpt>
<trkpt lat="34.8957371" lon="33.6385772">
<ele>1.4</ele>
<time>2015-05-01T16:05:12Z</time>
</trkpt>
<trkpt lat="34.8934866" lon="33.6387270">
<ele>0.9</ele>
<time>2015-05-01T16:06:02Z</time>
</trkpt>
<trkpt lat="34.8923592" lon="33.6383776">
<ele>1.3</ele>
<time>2015-05-01T16:06:30Z</time>
</trkpt>
<trkpt lat="34.8914924" lon="33.6371823">
<ele>3.7</ele>
<time>2015-05-01T16:07:07Z</time>
</trkpt>
<trkpt lat="34.8893483" lon="33.6366606">
<ele>3.1</ele>
<time>2015-05-01T16:09:56Z</time>
</trkpt>
<trkpt lat="34.8898988" lon="33.6366336">
<ele>3.3</ele>
<time>2015-05-01T16:11:28Z</time>
</trkpt>
<trkpt lat="34.8911801" lon="33.6370884">
<ele>3.5</ele>
<time>2015-05-01T16:12:09Z</time>
</trkpt>
<trkpt lat="34.8915048" lon="33.6369509">
<ele>3.8</ele>
<time>2015-05-01T16:12:21Z</time>
</trkpt>
<trkpt lat="34.8914893" lon="33.6365181">
<ele>3.2</ele>
<time>2015-05-01T16:12:33Z</time>
</trkpt>
<trkpt lat="34.8908505" lon="33.6344484">
<ele>2.7</ele>
<time>2015-05-01T16:13:51Z</time>
</trkpt>
<trkpt lat="34.8910772" lon="33.6351421">
<ele>1.9</ele>
<time>2015-05-01T16:15:27Z</time>
</trkpt>
<trkpt lat="34.8932279" lon="33.6340864">
<ele>11.9</ele>
<time>2015-05-01T16:17:04Z</time>
</trkpt>
<trkpt lat="34.8929359" lon="33.6343592">
<ele>11.8</ele>
<time>2015-05-01T16:17:18Z</time>
</trkpt>
<trkpt lat="34.8931902" lon="33.6351988">
<ele>13.3</ele>
<time>2015-05-01T16:17:45Z</time>
</trkpt>
<trkpt lat="34.8930346" lon="33.6350013">
<ele>12.5</ele>
<time>2015-05-01T16:17:54Z</time>
</trkpt>
<trkpt lat="34.8928360" lon="33.6350769">
<ele>13.5</ele>
<time>2015-05-01T16:18:11Z</time>
</trkpt>
<trkpt lat="34.8928664" lon="33.6352754">
<ele>12.5</ele>
<time>2015-05-01T16:18:56Z</time>
</trkpt>
<trkpt lat="34.8928205" lon="33.6351194">
<ele>13.8</ele>
<time>2015-05-01T16:19:20Z</time>
</trkpt>
</trkseg>
</trk>
</gpx>